Главная страница
METAR-TAF:

METAR-TAF

Аэропорты :

Екатеринбург, Россия

Кольцово

широта: 56-50N, долгота: 060-38E, высота над уровнем моря: 237 м

Текущие метеонаблюдения

Эта сводка был подготовлена 22 минут назад, в 06:00 UTC
Штиль
Температура 27°C
Влажность 54%
Давление 1028 hPa
Видимость 10 км и более
Нет облачности ниже 1500 м, и нет кучево-дождевой облачности

METAR: USSS 230600Z 00000MPS CAVOK 27/17 Q1028 R08L/010060 NOSIG RMK QFE750/1001

Время: 11:22 (06:22 UTC)

Прогноз

Эта сводка был подготовлена 1 час и 28 минут назад, в 04:54 UTC
Прогноз действительный с 23-го 06 UTC до 24-го 06 UTC
Ветер 6 Узел от южный
Видимость 10 км и более
Нет облачности ниже 1500 м, и нет кучево-дождевой облачности
изменения
С 23-го 17 UTC до 23-го 19 UTC
Видимость: 3100 м
дымка

TAF: USSS 230454Z 2306/2406 19003MPS CAVOK BECMG 2317/2319 3100 BR

Метеонаблюдения и прогнозы для более 4000 аэропортов (сводки METAR и TAF).

Имеющиеся станции представлены на карте желтыми и красными точками.

Чтобы увидеть название станции, наведите на нее мышь.

Затем щелкните, чтобы увидеть метеонаблюдения и метеопрогнозы.

Управление картой: чтобы увеличить масштаб, щелкните зеленые кнопки с черным крестиком; чтобы уменьшить масштаб, щелкните зеленую кнопку с тире; для просмотра соседних карт щелкайте зеленые стрелки.


METAR-TAF: